Flight Track Log - Related Links

Times and Time Zones

All times are in EDT time to prevent confusion due to time zone crossing. See the KAP29 flight status page for this flight to view local times or setup timezone preferences in your user account.

Time Position Orientation Groundspeed Altitude Reporting Facility
EDT Latitude Longitude Course Direction KTS MPH feet Rate Location/Type
Sun 04:13:56 PM 44.3475 -74.0775 112° Southeast 155 178 5,600  Level Boston Center
Sun 04:14:56 PM 44.3189 -74.0361 134° Southeast 148 170 6,400 750 Climbing Boston Center
Sun 04:15:56 PM 44.2906 -73.9889 130° Southeast 148 170 7,100 700 Climbing Boston Center
Sun 04:16:56 PM 44.2681 -73.9447 125° Southeast 148 170 7,800 650 Climbing Boston Center
Sun 04:17:56 PM 44.2500 -73.8978 118° Southeast 143 165 8,400 500 Climbing Boston Center
Sun 04:18:56 PM 44.2297 -73.8481 120° Southeast 143 165 8,800 400 Climbing Boston Center
Sun 04:19:56 PM 44.2097 -73.7928 117° Southeast 149 171 9,200 150 Climbing Boston Center
Sun 04:20:56 PM 44.1853 -73.7314 119° Southeast 162 186 9,100 -50 Descending Boston Center
Sun 04:21:56 PM 44.1608 -73.6728 120° Southeast 173 199 9,100  Level Boston Center
Sun 04:22:56 PM 44.1367 -73.6086 118° Southeast 173 199 9,100  Level Boston Center
Sun 04:24:08 PM 44.1122 -73.5447 118° Southeast 185 213 9,100  Level Boston Center
Sun 04:25:08 PM 44.0775 -73.4717 123° Southeast 185 213 9,100  Level Boston Center
Sun 04:26:08 PM 44.0425 -73.4219 134° Southeast 185 213 9,100  Level Boston Center
Sun 04:27:08 PM 44.0075 -73.3753 136° Southeast 179 206 9,100  Level Boston Center
Sun 04:28:08 PM 43.9744 -73.3228 131° Southeast 190 219 9,100  Level Boston Center
Sun 04:29:08 PM 43.9500 -73.2619 119° Southeast 190 219 9,100  Level Boston Center
Sun 04:30:08 PM 43.9256 -73.2011 119° Southeast 185 213 9,100  Level Boston Center
Sun 04:31:08 PM 43.9008 -73.1403 119° Southeast 185 213 9,100  Level Boston Center
Sun 04:32:08 PM 43.8742 -73.0794 121° Southeast 190 219 9,100  Level Boston Center
Sun 04:33:08 PM 43.8472 -73.0186 122° Southeast 190 219 9,100  Level Boston Center
Sun 04:34:08 PM 43.8225 -72.9553 118° Southeast 190 219 9,100  Level Boston Center
Sun 04:35:08 PM 43.7958 -72.8975 123° Southeast 190 219 9,100  Level Boston Center
Sun 04:36:08 PM 43.7689 -72.8283 118° Southeast 190 219 9,100  Level Boston Center
Sun 04:37:08 PM 43.7442 -72.7706 121° Southeast 190 219 9,100  Level Boston Center
Sun 04:38:20 PM 43.7172 -72.7100 122° Southeast 190 219 9,100  Level Boston Center
Sun 04:39:20 PM 43.6881 -72.6411 120° Southeast 190 219 9,100 -50 Level Boston Center
Sun 04:40:20 PM 43.6633 -72.5864 122° Southeast 185 213 9,000 -50 Descending Boston Center
Sun 04:41:20 PM 43.6383 -72.5261 120° Southeast 185 213 9,000  Level Boston Center
Sun 04:42:20 PM 43.6111 -72.4658 122° Southeast 185 213 9,000  Level Boston Center
Sun 04:43:20 PM 43.5842 -72.4056 122° Southeast 190 219 9,000  Level Boston Center
Sun 04:44:20 PM 43.5611 -72.3456 118° Southeast 190 219 9,000  Level Boston Center
Sun 04:45:20 PM 43.5339 -72.2883 123° Southeast 185 213 9,000  Level Boston Center
Sun 04:46:20 PM 43.5089 -72.2311 121° Southeast 185 213 9,000  Level Boston Center
Sun 04:47:20 PM 43.4839 -72.1711 120° Southeast 185 213 9,000  Level Boston Center
Sun 04:48:32 PM 43.4522 -72.0997 121° Southeast 185 213 9,000 -136 Level Boston Center
Sun 04:49:32 PM 43.4272 -72.0400 120° Southeast 185 213 8,700 -250 Descending Boston Center
Sun 04:50:32 PM 43.4042 -71.9914 123° Southeast 190 219 8,500 -300 Descending Boston Center
Sun 04:51:32 PM 43.3683 -71.9117 122° Southeast 195 224 8,100 -300 Descending Boston Center
Sun 04:52:32 PM 43.3431 -71.8578 123° Southeast 189 217 7,900 -200 Descending Boston Center
Sun 04:53:32 PM 43.3136 -71.8181 136° Southeast 189 217 7,700 -250 Descending Boston Center
Sun 04:54:32 PM 43.2675 -71.7558 135° Southeast 182 209 7,400 -300 Descending Boston Center
Sun 04:55:32 PM 43.2275 -71.7019 136° Southeast 188 216 7,100 -300 Descending Boston Center
Sun 04:56:32 PM 43.1958 -71.6542 132° Southeast 193 222 6,800 -353 Descending Boston Center
Sun 04:57:14 PM 43.1667 -71.6167 137° Southeast 192 221 6,500 -412 Descending KA90
Sun 04:58:14 PM 43.1333 -71.5667 132° Southeast 193 222 6,100 -250 Descending KA90
Sun 04:59:14 PM 43.0833 -71.5167 144° Southeast 182 209 6,000 -48 Descending KA90
Sun 05:00:20 PM 43.0500 -71.4667 132° Southeast 176 203 6,000  Level KA90
Sun 05:01:20 PM 43.0000 -71.4333 154° Southeast 172 198 6,000  Level KA90
Sun 05:02:20 PM 42.9667 -71.3833 132° Southeast 167 192 6,000  Level KA90
Sun 05:03:21 PM 42.9333 -71.3500 144° Southeast 169 194 6,000  Level KA90
Sun 05:04:21 PM 42.9000 -71.3167 144° Southeast 171 197 6,000  Level KA90
Sun 05:05:20 PM 42.8500 -71.2833 154° Southeast 166 191 6,000  Level KA90
Sun 05:06:21 PM 42.8167 -71.2667 160° South 166 191 6,000  Level KA90
Sun 05:07:21 PM 42.7667 -71.2333 154° Southeast 168 193 6,000  Level KA90
Sun 05:08:21 PM 42.7333 -71.2167 160° South 168 193 6,000  Level KA90
Sun 05:09:21 PM 42.6833 -71.1833 154° Southeast 165 190 6,000 -200 Level KA90
Sun 05:10:21 PM 42.6333 -71.1667 166° South 168 193 5,600 -400 Descending KA90
Sun 05:11:21 PM 42.6000 -71.1333 144° Southeast 178 205 5,200 -300 Descending KA90
Sun 05:12:21 PM 42.5500 -71.1333 180° South 175 201 5,000 -99 Descending KA90
Sun 05:13:22 PM 42.5000 -71.1333 180° South 161 185 5,000  Level KA90
Sun 05:14:27 PM 42.4500 -71.1333 180° South 154 177 5,000 -100 Level KA90
Sun 05:15:22 PM 42.4167 -71.1333 180° South 155 178 4,800 -574 Descending KA90
Sun 05:16:22 PM 42.3833 -71.1833 228° Southwest 169 194 3,900 -850 Descending KA90
Sun 05:17:22 PM 42.3500 -71.1333 132° Southeast 169 194 3,100 -1,000 Descending KA90
Sun 05:18:22 PM 42.3333 -71.0833 114° Southeast 149 171 1,900 -1,100 Descending KA90
Sun 05:19:22 PM 42.3333 -71.0333 90° East 129 148 900 -1,000 Descending KA90
Sun 05:21:00 PM 42.3630 -71.0064 56° Northeast  Level Estimated
Sun 05:28:00 PM 42.3630 -71.0064 152° Southeast  Level Estimated

Login

Don't have an account? Register now (free) for customized features, flight alerts, and more!